createdAt,value
2018-07-09T00:01:10.463Z,4.00
2018-07-09T00:03:39.402Z,4.10
2018-07-09T00:06:08.310Z,4.50
2018-07-09T00:08:37.576Z,4.27
2018-07-09T00:11:07.565Z,4.30
2018-07-09T00:13:37.805Z,3.60
2018-07-09T00:16:06.745Z,4.10
2018-07-09T00:18:35.917Z,4.30
2018-07-09T00:21:04.924Z,4.47
2018-07-09T00:23:33.625Z,5.03
2018-07-09T00:26:02.714Z,4.40
2018-07-09T00:28:31.709Z,4.80
2018-07-09T00:31:00.616Z,5.10
2018-07-09T00:33:29.577Z,4.00
2018-07-09T00:35:58.426Z,4.87
2018-07-09T00:38:27.684Z,4.37
2018-07-09T00:40:56.615Z,5.10
2018-07-09T00:43:25.639Z,4.67
2018-07-09T00:45:54.441Z,4.27
2018-07-09T00:48:23.565Z,5.03
2018-07-09T00:50:52.620Z,4.50
2018-07-09T00:53:21.624Z,5.30
2018-07-09T00:55:50.528Z,4.27
2018-07-09T00:58:19.617Z,4.60
2018-07-09T01:00:49.009Z,5.37
2018-07-09T01:03:17.956Z,5.53
2018-07-09T01:05:46.821Z,4.53
2018-07-09T01:08:15.887Z,5.13
2018-07-09T01:10:55.722Z,4.43
2018-07-09T01:13:35.648Z,4.93
2018-07-09T01:16:04.486Z,4.87
2018-07-09T01:18:33.827Z,5.10
2018-07-09T01:21:02.724Z,5.50
2018-07-09T01:23:31.521Z,4.80
2018-07-09T01:26:00.961Z,4.83
2018-07-09T01:28:29.940Z,4.37
2018-07-09T01:30:58.838Z,5.10
2018-07-09T01:33:27.748Z,5.00
2018-07-09T01:35:56.826Z,5.37
2018-07-09T01:38:25.767Z,5.70
2018-07-09T01:40:54.481Z,5.23
2018-07-09T01:43:23.531Z,5.90
2018-07-09T01:45:52.428Z,5.20
2018-07-09T01:48:21.286Z,4.90
2018-07-09T01:50:50.177Z,4.97
2018-07-09T01:53:19.105Z,5.10
2018-07-09T01:55:48.521Z,4.67
2018-07-09T01:58:17.255Z,5.60
2018-07-09T02:00:46.067Z,5.10
2018-07-09T02:03:15.031Z,6.13
2018-07-09T02:05:44.368Z,5.57
2018-07-09T02:08:13.212Z,5.80
2018-07-09T02:10:42.170Z,5.63
2018-07-09T02:13:11.174Z,5.90
2018-07-09T02:15:40.093Z,5.20
2018-07-09T02:18:09.058Z,5.57
2018-07-09T02:20:37.788Z,5.77
2018-07-09T02:23:06.649Z,5.23
2018-07-09T02:25:35.582Z,4.80
2018-07-09T02:28:04.456Z,5.20
2018-07-09T02:30:33.669Z,8.40
2018-07-09T02:33:02.627Z,5.40
2018-07-09T02:35:31.534Z,5.77
2018-07-09T02:38:00.329Z,6.00
2018-07-09T02:40:29.319Z,6.30
2018-07-09T02:42:58.234Z,6.13
2018-07-09T02:45:27.088Z,4.90
2018-07-09T02:47:56.214Z,5.53
2018-07-09T02:50:24.976Z,5.83
2018-07-09T02:52:54.232Z,7.17
2018-07-09T02:55:23.187Z,6.87
2018-07-09T02:57:52.303Z,5.70
2018-07-09T03:00:21.285Z,6.43
2018-07-09T03:02:50.198Z,7.00
2018-07-09T03:05:19.378Z,6.33
2018-07-09T03:07:48.134Z,6.60
2018-07-09T03:10:17.077Z,7.97
2018-07-09T03:12:45.982Z,5.77
2018-07-09T03:15:14.939Z,6.90
2018-07-09T03:17:44.043Z,6.97
2018-07-09T03:20:13.216Z,7.60
2018-07-09T03:22:42.231Z,6.47
2018-07-09T03:25:11.145Z,7.13
2018-07-09T03:27:40.007Z,6.87
2018-07-09T03:30:09.007Z,6.20
2018-07-09T03:32:37.947Z,5.90
2018-07-09T03:35:06.827Z,5.60
2018-07-09T03:37:35.564Z,6.57
2018-07-09T03:40:04.395Z,6.43
2018-07-09T03:42:33.364Z,7.73
2018-07-09T03:45:02.397Z,8.80
2018-07-09T03:47:31.452Z,7.30
2018-07-09T03:50:00.183Z,6.80
2018-07-09T03:52:29.331Z,7.30
2018-07-09T03:54:58.217Z,7.33
2018-07-09T03:57:27.097Z,6.43
2018-07-09T03:59:56.152Z,6.00
2018-07-09T04:02:25.023Z,6.43
2018-07-09T04:04:53.939Z,5.90
2018-07-09T04:07:22.910Z,6.83
2018-07-09T04:09:52.205Z,6.70
2018-07-09T04:12:21.116Z,6.97
2018-07-09T04:14:49.873Z,6.90
2018-07-09T04:17:18.859Z,7.10
2018-07-09T04:19:48.092Z,6.57
2018-07-09T04:22:17.164Z,7.17
2018-07-09T04:24:45.965Z,7.50
2018-07-09T04:27:14.761Z,6.50
2018-07-09T04:29:43.570Z,7.63
2018-07-09T04:32:12.707Z,7.43
2018-07-09T04:34:41.696Z,6.70
2018-07-09T04:37:10.560Z,7.17
2018-07-09T04:39:39.476Z,7.83
2018-07-09T04:42:08.593Z,7.97
2018-07-09T04:44:37.463Z,7.97
2018-07-09T04:47:06.909Z,6.53
2018-07-09T04:49:35.761Z,7.10
2018-07-09T04:52:04.985Z,8.60
2018-07-09T04:54:34.262Z,7.87
2018-07-09T04:57:03.310Z,8.83
2018-07-09T04:59:32.333Z,7.97
2018-07-09T05:02:01.504Z,7.70
2018-07-09T05:04:30.252Z,6.90
2018-07-09T05:06:58.547Z,6.67
2018-07-09T05:09:27.638Z,7.70
2018-07-09T05:11:56.794Z,7.17
2018-07-09T05:14:25.489Z,8.13
2018-07-09T05:16:54.409Z,7.20
2018-07-09T05:19:23.336Z,7.17
2018-07-09T05:21:52.255Z,7.37
2018-07-09T05:24:20.999Z,6.97
2018-07-09T05:26:50.248Z,5.70
2018-07-09T05:29:19.301Z,6.97
2018-07-09T05:31:48.655Z,8.10
2018-07-09T05:34:17.795Z,6.40
2018-07-09T05:36:46.650Z,6.90
2018-07-09T05:39:15.609Z,6.40
2018-07-09T05:41:44.744Z,7.60
2018-07-09T05:44:13.876Z,6.40
2018-07-09T05:46:42.959Z,7.67
2018-07-09T05:49:12.653Z,7.80
2018-07-09T05:51:42.242Z,8.47
2018-07-09T05:54:11.246Z,6.93
2018-07-09T05:56:40.459Z,6.50
2018-07-09T05:59:09.280Z,6.90
2018-07-09T06:01:38.141Z,6.07
2018-07-09T06:04:08.009Z,7.13
2018-07-09T06:06:37.153Z,7.17
2018-07-09T06:09:08.212Z,5.70
2018-07-09T06:11:37.477Z,5.80
2018-07-09T06:14:06.905Z,5.87
2018-07-09T06:16:35.700Z,5.27
2018-07-09T06:19:04.530Z,5.57
2018-07-09T06:21:33.381Z,5.33
2018-07-09T06:24:02.442Z,6.40
2018-07-09T06:26:31.303Z,6.23
2018-07-09T06:29:00.118Z,5.33
2018-07-09T06:31:28.983Z,6.80
2018-07-09T06:33:57.812Z,5.63
2018-07-09T06:36:26.766Z,6.13
2018-07-09T06:38:55.662Z,5.80
2018-07-09T06:41:24.664Z,6.47
2018-07-09T06:43:53.514Z,6.47
2018-07-09T06:46:22.418Z,6.30
2018-07-09T06:48:51.495Z,5.30
2018-07-09T06:51:20.270Z,5.73
2018-07-09T06:53:49.539Z,6.10
2018-07-09T06:56:19.806Z,5.37
2018-07-09T06:58:48.745Z,6.50
2018-07-09T07:01:18.012Z,5.83
2018-07-09T07:03:47.243Z,5.53
2018-07-09T07:06:16.211Z,5.07
2018-07-09T07:08:45.233Z,5.00
2018-07-09T07:11:14.421Z,5.47
2018-07-09T07:13:43.661Z,5.33
2018-07-09T07:16:12.361Z,5.67
2018-07-09T07:18:41.494Z,6.27
2018-07-09T07:21:10.382Z,5.50
2018-07-09T07:23:39.638Z,4.33
2018-07-09T07:26:08.636Z,5.17
2018-07-09T07:28:37.541Z,5.23
2018-07-09T07:31:06.480Z,4.30
2018-07-09T07:33:35.447Z,5.43
2018-07-09T07:36:04.598Z,5.30
2018-07-09T07:38:33.446Z,5.47
2018-07-09T07:41:02.309Z,4.73
2018-07-09T07:43:31.203Z,5.03
2018-07-09T07:46:00.163Z,5.03
2018-07-09T07:48:28.996Z,4.47
2018-07-09T07:50:57.778Z,4.63
2018-07-09T07:53:26.651Z,5.40
2018-07-09T07:55:55.874Z,4.97
2018-07-09T07:58:24.652Z,7.50
2018-07-09T08:00:53.605Z,6.87
2018-07-09T08:03:22.521Z,8.00
2018-07-09T08:05:51.411Z,5.90
2018-07-09T08:08:20.282Z,6.27
2018-07-09T08:10:49.261Z,4.93
2018-07-09T08:13:31.214Z,6.50
2018-07-09T08:15:47.206Z,5.73
2018-07-09T08:18:16.296Z,6.83
2018-07-09T08:20:45.249Z,5.80
2018-07-09T08:23:14.043Z,6.90
2018-07-09T08:25:43.303Z,6.80
2018-07-09T08:28:12.132Z,8.57
2018-07-09T08:30:41.013Z,6.50
2018-07-09T08:33:10.033Z,7.53
2018-07-09T08:35:39.105Z,5.90
2018-07-09T08:38:08.123Z,7.07
2018-07-09T08:40:37.144Z,7.90
2018-07-09T08:43:06.283Z,6.33
2018-07-09T08:45:35.089Z,7.00
2018-07-09T08:48:04.416Z,7.13
2018-07-09T08:50:33.305Z,7.43
2018-07-09T08:53:02.267Z,5.70
2018-07-09T08:55:31.097Z,6.47
2018-07-09T08:58:00.362Z,4.80
2018-07-09T09:00:29.384Z,6.20
2018-07-09T09:02:58.400Z,6.63
2018-07-09T09:05:27.265Z,6.40
2018-07-09T09:07:56.185Z,6.90
2018-07-09T09:10:25.487Z,7.60
2018-07-09T09:12:54.353Z,6.60
2018-07-09T09:15:23.251Z,6.73
2018-07-09T09:17:52.074Z,5.53
2018-07-09T09:20:34.236Z,6.60
2018-07-09T09:23:07.149Z,6.53
2018-07-09T09:25:36.464Z,6.50
2018-07-09T09:28:05.661Z,6.27
2018-07-09T09:30:34.956Z,6.00
2018-07-09T09:33:04.162Z,5.60
2018-07-09T09:35:33.469Z,5.87
2018-07-09T09:38:02.921Z,5.77
2018-07-09T09:40:31.870Z,5.70
2018-07-09T09:43:00.913Z,6.20
2018-07-09T09:45:30.209Z,5.57
2018-07-09T09:47:59.266Z,6.57
2018-07-09T09:50:28.500Z,6.20
2018-07-09T09:52:57.587Z,5.67
2018-07-09T09:55:26.427Z,5.17
2018-07-09T09:57:55.450Z,5.80
2018-07-09T10:00:29.398Z,5.00
2018-07-09T10:02:58.587Z,5.33
2018-07-09T10:05:27.379Z,5.23
2018-07-09T10:07:56.360Z,5.47
2018-07-09T10:10:25.263Z,5.43
2018-07-09T10:12:54.132Z,5.70
2018-07-09T10:15:23.273Z,5.57
2018-07-09T10:17:52.607Z,6.17
2018-07-09T10:20:21.435Z,5.00
2018-07-09T10:22:50.468Z,4.40
2018-07-09T10:25:19.422Z,4.50
2018-07-09T10:27:48.673Z,4.90
2018-07-09T10:30:17.962Z,5.07
2018-07-09T10:32:46.795Z,5.13
2018-07-09T10:35:16.141Z,4.70
2018-07-09T10:37:50.784Z,5.27
2018-07-09T10:40:19.738Z,5.17
2018-07-09T10:42:48.671Z,4.60
2018-07-09T10:45:17.577Z,4.47
2018-07-09T10:47:46.565Z,4.77
2018-07-09T10:50:15.593Z,5.10
2018-07-09T10:52:44.517Z,5.00
2018-07-09T10:55:13.754Z,3.70
2018-07-09T10:57:42.683Z,4.37
2018-07-09T11:00:11.578Z,3.90
2018-07-09T11:02:40.678Z,3.83
2018-07-09T11:05:09.743Z,3.77
2018-07-09T11:07:38.700Z,4.00
2018-07-09T11:10:07.813Z,3.43
2018-07-09T11:12:36.756Z,7.10
2018-07-09T11:15:06.018Z,3.90
2018-07-09T11:17:35.012Z,3.73
2018-07-09T11:20:03.883Z,3.60
2018-07-09T11:22:32.876Z,3.87
2018-07-09T11:25:01.988Z,4.43
2018-07-09T11:27:30.856Z,3.60
2018-07-09T11:30:00.024Z,4.10
2018-07-09T11:32:31.114Z,4.43
2018-07-09T11:35:00.894Z,3.70
2018-07-09T11:37:30.420Z,3.77
2018-07-09T11:39:59.511Z,3.57
2018-07-09T11:42:28.607Z,4.07
2018-07-09T11:44:57.486Z,4.00
2018-07-09T11:47:27.085Z,4.00
2018-07-09T11:49:56.113Z,4.53
2018-07-09T11:52:25.093Z,4.87
2018-07-09T11:54:54.017Z,3.70
2018-07-09T11:57:23.208Z,4.70
2018-07-09T11:59:52.147Z,4.43
2018-07-09T12:02:21.335Z,5.40
2018-07-09T12:04:50.295Z,4.50
2018-07-09T12:07:19.409Z,4.50
2018-07-09T12:09:48.440Z,3.80
2018-07-09T12:12:17.935Z,5.63
2018-07-09T12:14:47.073Z,4.67
2018-07-09T12:17:16.083Z,4.97
2018-07-09T12:19:45.152Z,5.20
2018-07-09T12:22:14.069Z,4.03
2018-07-09T12:24:43.798Z,4.60
2018-07-09T12:27:12.965Z,4.50
2018-07-09T12:29:42.039Z,3.70
2018-07-09T12:32:11.145Z,4.20
2018-07-09T12:34:39.914Z,4.30
2018-07-09T12:37:09.197Z,4.07
2018-07-09T12:39:38.369Z,3.77
2018-07-09T12:42:07.329Z,3.20
2018-07-09T12:44:36.345Z,3.93
2018-07-09T12:47:05.526Z,3.50
2018-07-09T12:49:34.591Z,3.37
2018-07-09T12:52:03.386Z,4.20
2018-07-09T12:54:32.294Z,3.57
2018-07-09T12:57:01.471Z,4.63
2018-07-09T12:59:30.498Z,3.70
2018-07-09T13:02:00.155Z,6.33
2018-07-09T13:04:29.047Z,3.47
2018-07-09T13:06:58.468Z,4.10
2018-07-09T13:09:27.506Z,3.37
2018-07-09T13:11:56.400Z,2.93
2018-07-09T13:14:25.428Z,3.10
2018-07-09T13:16:54.339Z,3.20
2018-07-09T13:19:23.325Z,3.10
2018-07-09T13:21:52.421Z,3.30
2018-07-09T13:24:21.337Z,3.10
2018-07-09T13:26:50.320Z,3.00
2018-07-09T13:29:19.529Z,2.80
2018-07-09T13:31:48.515Z,2.70
2018-07-09T13:34:18.429Z,2.53
2018-07-09T13:36:47.447Z,4.03
2018-07-09T13:39:16.749Z,3.17
2018-07-09T13:41:45.710Z,2.80
2018-07-09T13:44:14.843Z,3.47
2018-07-09T13:46:43.709Z,2.70
2018-07-09T13:49:12.530Z,3.20
2018-07-09T13:51:41.681Z,3.13
2018-07-09T13:54:10.487Z,3.83
2018-07-09T13:56:39.715Z,3.93
2018-07-09T13:59:08.565Z,3.33
2018-07-09T14:01:37.467Z,3.17
2018-07-09T14:04:06.914Z,3.13
2018-07-09T14:06:36.278Z,3.00
2018-07-09T14:09:05.970Z,3.67
2018-07-09T14:11:34.889Z,2.80
2018-07-09T14:14:04.216Z,3.23
2018-07-09T14:16:33.110Z,2.87
2018-07-09T14:19:06.370Z,3.10
2018-07-09T14:21:35.306Z,2.83
2018-07-09T14:24:04.385Z,3.03
2018-07-09T14:26:33.393Z,2.67
2018-07-09T14:29:02.229Z,3.13
2018-07-09T14:31:31.458Z,3.30
2018-07-09T14:34:00.362Z,3.60
2018-07-09T14:36:29.611Z,3.23
2018-07-09T14:38:58.615Z,2.97
2018-07-09T14:41:27.591Z,3.07
2018-07-09T14:43:56.443Z,2.80
2018-07-09T14:46:25.217Z,2.50
2018-07-09T14:48:54.103Z,2.93
2018-07-09T14:51:23.164Z,2.43
2018-07-09T14:53:52.578Z,3.00
2018-07-09T14:56:21.579Z,2.70
2018-07-09T14:58:51.602Z,2.53
2018-07-09T15:01:21.042Z,2.83
2018-07-09T15:03:49.871Z,2.50
2018-07-09T15:06:19.011Z,2.37
2018-07-09T15:08:47.897Z,2.20
2018-07-09T15:11:17.274Z,2.10
2018-07-09T15:13:46.040Z,2.20
2018-07-09T15:16:15.046Z,3.47
2018-07-09T15:18:43.938Z,2.70
2018-07-09T15:21:12.984Z,2.23
2018-07-09T15:23:41.934Z,2.20
2018-07-09T15:26:10.728Z,2.33
2018-07-09T15:28:39.667Z,2.47
2018-07-09T15:31:08.732Z,2.30
2018-07-09T15:33:38.131Z,2.10
2018-07-09T15:36:07.142Z,2.33
2018-07-09T15:38:36.171Z,2.30
2018-07-09T15:41:05.046Z,2.40
2018-07-09T15:43:44.934Z,1.90
2018-07-09T15:46:13.876Z,1.90
2018-07-09T15:48:42.681Z,2.13
2018-07-09T15:51:11.883Z,2.00
2018-07-09T15:53:43.940Z,2.20
2018-07-09T15:56:13.207Z,2.07
2018-07-09T15:58:42.058Z,2.43
2018-07-09T16:01:11.051Z,2.40
2018-07-09T16:03:40.167Z,2.43
2018-07-09T16:06:09.141Z,1.80
2018-07-09T16:08:38.170Z,1.60
2018-07-09T16:11:07.251Z,2.30
2018-07-09T16:13:36.258Z,1.77
2018-07-09T16:16:05.853Z,1.90
2018-07-09T16:18:36.145Z,1.70
2018-07-09T16:21:05.079Z,1.40
2018-07-09T16:23:33.842Z,1.80
2018-07-09T16:26:03.144Z,1.87
2018-07-09T16:28:32.227Z,1.57
2018-07-09T16:31:01.418Z,1.60
2018-07-09T16:33:30.500Z,1.90
2018-07-09T16:35:59.633Z,1.77
2018-07-09T16:38:28.742Z,1.73
2018-07-09T16:40:58.034Z,1.90
2018-07-09T16:43:26.953Z,1.77
2018-07-09T16:45:55.846Z,1.57
2018-07-09T16:48:24.729Z,1.80
2018-07-09T16:50:53.733Z,2.00
2018-07-09T16:53:22.654Z,1.30
2018-07-09T16:55:51.524Z,1.60
2018-07-09T16:58:20.602Z,1.70
2018-07-09T17:00:49.638Z,1.30
2018-07-09T17:03:18.653Z,1.33
2018-07-09T17:05:47.629Z,2.27
2018-07-09T17:08:16.490Z,1.53
2018-07-09T17:10:45.510Z,1.50
2018-07-09T17:13:14.514Z,1.40
2018-07-09T17:15:43.374Z,1.40
2018-07-09T17:18:12.468Z,1.40
2018-07-09T17:20:41.345Z,1.33
2018-07-09T17:23:10.131Z,1.40
2018-07-09T17:25:39.298Z,1.50
2018-07-09T17:28:14.773Z,1.30
2018-07-09T17:30:43.646Z,1.17
2018-07-09T17:33:12.518Z,1.40
2018-07-09T17:35:41.449Z,1.70
2018-07-09T17:38:10.701Z,1.47
2018-07-09T17:40:39.698Z,1.77
2018-07-09T17:43:08.563Z,1.30
2018-07-09T17:45:37.536Z,0.90
2018-07-09T17:48:06.447Z,1.47
2018-07-09T17:50:35.262Z,1.20
2018-07-09T17:53:04.263Z,1.90
2018-07-09T17:55:33.274Z,1.13
2018-07-09T17:58:02.598Z,1.63
2018-07-09T18:00:31.826Z,1.60
2018-07-09T18:03:01.046Z,1.60
2018-07-09T18:05:30.127Z,1.87
2018-07-09T18:07:59.147Z,1.60
2018-07-09T18:10:27.926Z,2.23
2018-07-09T18:12:57.052Z,1.87
2018-07-09T18:15:25.999Z,2.00
2018-07-09T18:17:54.932Z,1.40
2018-07-09T18:20:23.872Z,2.13
2018-07-09T18:22:53.017Z,1.60
2018-07-09T18:25:22.253Z,1.73
2018-07-09T18:27:51.390Z,1.73
2018-07-09T18:30:20.883Z,2.00
2018-07-09T18:32:49.777Z,1.70
2018-07-09T18:35:18.828Z,1.50
2018-07-09T18:37:47.832Z,1.50
2018-07-09T18:40:16.699Z,1.53
2018-07-09T18:42:45.986Z,1.17
2018-07-09T18:45:14.914Z,1.30
2018-07-09T18:47:43.758Z,1.40
2018-07-09T18:50:12.643Z,1.53
2018-07-09T18:52:41.362Z,1.97
2018-07-09T18:55:10.405Z,1.60
2018-07-09T18:57:40.614Z,1.80
2018-07-09T19:00:09.524Z,1.93
2018-07-09T19:02:38.473Z,1.67
2018-07-09T19:05:07.401Z,1.40
2018-07-09T19:07:36.402Z,2.23
2018-07-09T19:10:05.344Z,1.80
2018-07-09T19:12:35.502Z,1.40
2018-07-09T19:15:06.150Z,1.50
2018-07-09T19:18:13.322Z,1.33
2018-07-09T19:21:25.661Z,1.53
2018-07-09T19:23:53.706Z,1.40
2018-07-09T19:26:21.478Z,1.50
2018-07-09T19:28:49.197Z,1.87
2018-07-09T19:31:16.879Z,1.43
2018-07-09T19:33:44.548Z,1.40
2018-07-09T19:36:11.981Z,1.73
2018-07-09T19:38:39.669Z,1.47
2018-07-09T19:41:07.732Z,1.30
2018-07-09T19:43:35.470Z,1.40
2018-07-09T19:46:02.948Z,1.90
2018-07-09T19:48:30.410Z,2.27
2018-07-09T19:50:57.958Z,1.70
2018-07-09T19:53:25.492Z,1.80
2018-07-09T19:55:52.965Z,1.90
2018-07-09T19:58:20.464Z,1.40
2018-07-09T20:00:48.102Z,1.57
2018-07-09T20:03:15.517Z,1.80
2018-07-09T20:05:43.108Z,2.80
2018-07-09T20:08:10.602Z,1.53
2018-07-09T20:10:43.175Z,1.97
2018-07-09T20:13:15.934Z,1.70
2018-07-09T20:15:48.619Z,2.17
2018-07-09T20:18:16.071Z,1.47
2018-07-09T20:20:43.485Z,1.80
2018-07-09T20:23:11.132Z,1.70
2018-07-09T20:25:38.966Z,1.50
2018-07-09T20:28:06.654Z,1.70
2018-07-09T20:30:34.081Z,1.53
2018-07-09T20:33:01.522Z,1.50
2018-07-09T20:35:29.055Z,1.90
2018-07-09T20:37:56.518Z,1.50
2018-07-09T20:40:23.984Z,2.17
2018-07-09T20:42:51.438Z,1.40
2018-07-09T20:45:19.241Z,1.80
2018-07-09T20:47:46.728Z,1.90
2018-07-09T20:50:14.139Z,1.97
2018-07-09T20:52:41.589Z,2.00
2018-07-09T20:55:09.063Z,2.00
2018-07-09T20:57:36.733Z,1.53
2018-07-09T21:00:04.339Z,1.73
2018-07-09T21:02:31.742Z,2.10
2018-07-09T21:04:59.359Z,1.80
2018-07-09T21:07:26.745Z,2.03
2018-07-09T21:09:54.245Z,1.40
2018-07-09T21:12:21.702Z,1.77
2018-07-09T21:14:49.093Z,1.87
2018-07-09T21:17:16.594Z,1.40
2018-07-09T21:19:44.178Z,1.97
2018-07-09T21:22:11.941Z,2.13
2018-07-09T21:24:39.322Z,1.87
2018-07-09T21:27:06.814Z,2.30
2018-07-09T21:29:34.238Z,1.77
2018-07-09T21:32:01.742Z,2.23
2018-07-09T21:34:29.181Z,2.10
2018-07-09T21:36:56.663Z,1.57
2018-07-09T21:39:24.202Z,2.33
2018-07-09T21:41:51.768Z,2.00
2018-07-09T21:44:19.272Z,1.87
2018-07-09T21:46:46.928Z,2.70
2018-07-09T21:49:14.399Z,2.00
2018-07-09T21:51:41.799Z,2.00
2018-07-09T21:54:09.243Z,2.23
2018-07-09T21:56:36.671Z,1.90
2018-07-09T21:59:04.318Z,2.10
2018-07-09T22:01:31.869Z,2.30
2018-07-09T22:03:59.364Z,1.90
2018-07-09T22:06:26.807Z,2.00
2018-07-09T22:08:54.244Z,1.50
2018-07-09T22:11:21.829Z,1.63
2018-07-09T22:13:49.420Z,1.73
2018-07-09T22:16:16.994Z,1.70
2018-07-09T22:18:44.688Z,1.80
2018-07-09T22:21:12.091Z,1.80
2018-07-09T22:23:39.706Z,2.03
2018-07-09T22:26:07.104Z,1.60
2018-07-09T22:28:34.681Z,2.27
2018-07-09T22:31:03.517Z,2.50
2018-07-09T22:33:32.431Z,1.80
2018-07-09T22:36:01.330Z,1.60
2018-07-09T22:38:30.210Z,1.90
2018-07-09T22:41:00.106Z,1.47
2018-07-09T22:43:40.010Z,1.70
2018-07-09T22:46:08.717Z,1.70
2018-07-09T22:48:37.685Z,1.70
2018-07-09T22:51:06.709Z,1.80
2018-07-09T22:53:35.398Z,2.23
2018-07-09T22:56:09.246Z,1.73
2018-07-09T22:58:39.458Z,1.93
2018-07-09T23:01:08.351Z,1.80
2018-07-09T23:03:37.215Z,2.10
2018-07-09T23:06:06.106Z,1.60
2018-07-09T23:08:35.031Z,2.10
2018-07-09T23:11:20.802Z,2.50
2018-07-09T23:17:12.266Z,1.70
2018-07-09T23:21:59.044Z,1.80
2018-07-09T23:24:26.933Z,1.77
2018-07-09T23:26:54.974Z,2.20
2018-07-09T23:29:22.661Z,1.97
2018-07-09T23:31:50.295Z,1.83
2018-07-09T23:34:18.289Z,1.50
2018-07-09T23:36:45.735Z,2.00
2018-07-09T23:39:13.497Z,2.30
2018-07-09T23:41:41.090Z,2.27
2018-07-09T23:44:08.561Z,1.90
2018-07-09T23:46:36.014Z,1.93
2018-07-09T23:49:03.558Z,2.37
2018-07-09T23:51:31.013Z,1.90
2018-07-09T23:53:58.537Z,1.87
2018-07-09T23:59:39.885Z,1.80
